createdAt,value
2017-07-09T00:07:00.739Z,0
2017-07-09T00:17:15.264Z,0
2017-07-09T00:27:29.391Z,0
2017-07-09T00:37:43.700Z,0
2017-07-09T00:47:58.497Z,0
2017-07-09T00:58:14.026Z,0
2017-07-09T01:08:28.761Z,0
2017-07-09T01:18:44.248Z,0
2017-07-09T01:28:58.559Z,0
2017-07-09T01:39:12.711Z,0
2017-07-09T01:49:26.624Z,0
2017-07-09T01:59:40.406Z,0
2017-07-09T02:09:55.441Z,0
2017-07-09T02:20:09.932Z,0
2017-07-09T02:30:23.948Z,0
2017-07-09T02:40:38.222Z,4
2017-07-09T02:50:53.402Z,8
2017-07-09T03:01:07.655Z,48
2017-07-09T03:11:22.118Z,136
2017-07-09T03:21:36.928Z,232
2017-07-09T03:31:52.663Z,348
2017-07-09T03:42:07.488Z,612
2017-07-09T03:52:23.206Z,848
2017-07-09T04:02:38.022Z,1516
2017-07-09T04:12:53.559Z,2300
2017-07-09T04:23:09.294Z,4276
2017-07-09T04:33:24.781Z,5616
2017-07-09T04:43:39.628Z,5552
2017-07-09T04:53:55.136Z,6816
2017-07-09T05:04:10.247Z,9384
2017-07-09T05:14:26.061Z,7392
2017-07-09T05:24:40.803Z,8740
2017-07-09T05:34:54.951Z,10292
2017-07-09T05:45:10.078Z,12404
2017-07-09T05:55:25.065Z,12032
2017-07-09T06:05:40.313Z,14692
2017-07-09T06:15:55.253Z,11576
2017-07-09T06:26:10.064Z,11136
2017-07-09T06:36:24.811Z,14540
2017-07-09T06:46:40.597Z,21824
2017-07-09T06:56:56.110Z,31232
2017-07-09T07:07:10.479Z,29792
2017-07-09T07:17:25.018Z,39904
2017-07-09T07:27:40.214Z,42496
2017-07-09T07:37:55.210Z,49312
2017-07-09T07:48:10.910Z,43232
2017-07-09T07:58:26.049Z,37760
2017-07-09T08:08:40.212Z,33824
2017-07-09T08:18:54.224Z,37024
2017-07-09T08:29:08.439Z,45472
2017-07-09T08:39:22.635Z,43200
2017-07-09T08:49:37.990Z,39360
2017-07-09T08:59:51.915Z,55584
2017-07-09T09:10:06.313Z,81856
2017-07-09T09:20:21.884Z,92000
2017-07-09T09:30:36.008Z,97280
2017-07-09T09:40:50.730Z,88256
2017-07-09T09:51:06.270Z,88000
2017-07-09T10:01:20.377Z,36000
2017-07-09T10:11:36.357Z,33760
2017-07-09T10:21:52.174Z,45376
2017-07-09T10:32:07.006Z,48640
2017-07-09T10:42:22.034Z,64928
2017-07-09T10:52:37.185Z,35552
2017-07-09T11:02:52.630Z,46016
2017-07-09T11:13:07.600Z,116064
2017-07-09T11:23:21.825Z,30496
2017-07-09T11:33:36.512Z,103104
2017-07-09T11:43:52.181Z,106752
2017-07-09T11:54:08.078Z,39456
2017-07-09T12:04:23.388Z,39584
2017-07-09T12:14:38.290Z,35360
2017-07-09T12:24:52.412Z,96288
2017-07-09T12:35:07.715Z,97792
2017-07-09T12:45:23.391Z,93568
2017-07-09T12:55:39.389Z,92864
2017-07-09T13:05:54.220Z,117984
2017-07-09T13:16:09.342Z,93376
2017-07-09T13:26:24.222Z,109280
2017-07-09T13:36:38.053Z,92320
2017-07-09T13:46:52.811Z,100000
2017-07-09T13:57:06.962Z,33920
2017-07-09T14:07:21.632Z,42176
2017-07-09T14:17:36.503Z,100928
2017-07-09T14:27:52.123Z,61408
2017-07-09T14:38:06.417Z,74624
2017-07-09T14:48:20.568Z,24864
2017-07-09T14:58:36.151Z,26560
2017-07-09T15:08:50.680Z,19872
2017-07-09T15:19:05.986Z,23648
2017-07-09T15:29:20.092Z,22752
2017-07-09T15:39:35.047Z,20832
2017-07-09T15:49:50.701Z,22528
2017-07-09T16:00:05.320Z,18016
2017-07-09T16:10:19.234Z,48416
2017-07-09T16:20:34.063Z,18560
2017-07-09T16:30:49.973Z,16704
2017-07-09T16:41:04.497Z,18592
2017-07-09T16:51:20.010Z,20608
2017-07-09T17:01:35.178Z,22720
2017-07-09T17:11:49.517Z,16644
2017-07-09T17:22:03.975Z,15952
2017-07-09T17:32:18.856Z,20576
2017-07-09T17:42:33.528Z,14452
2017-07-09T17:52:47.718Z,15316
2017-07-09T18:03:03.649Z,10036
2017-07-09T18:13:18.470Z,8920
2017-07-09T18:23:34.191Z,7440
2017-07-09T18:33:48.773Z,5900
2017-07-09T18:44:02.728Z,4220
2017-07-09T18:54:16.731Z,3008
2017-07-09T19:04:31.348Z,2592
2017-07-09T19:14:45.350Z,1960
2017-07-09T19:25:00.187Z,1312
2017-07-09T19:35:15.051Z,736
2017-07-09T19:45:30.574Z,388
2017-07-09T19:55:46.154Z,204
2017-07-09T20:06:01.238Z,68
2017-07-09T20:16:16.177Z,20
2017-07-09T20:26:31.617Z,4
2017-07-09T20:36:46.609Z,0
2017-07-09T20:47:00.395Z,0
2017-07-09T20:57:15.546Z,0
2017-07-09T21:07:30.458Z,0
2017-07-09T21:17:45.630Z,0
2017-07-09T21:28:01.335Z,0
2017-07-09T21:38:16.958Z,0
2017-07-09T21:48:31.167Z,0
2017-07-09T21:58:45.211Z,0
2017-07-09T22:09:00.469Z,0
2017-07-09T22:19:14.743Z,0
2017-07-09T22:29:29.420Z,0
2017-07-09T22:39:44.697Z,0
2017-07-09T22:49:58.618Z,0
2017-07-09T23:00:13.929Z,0
2017-07-09T23:10:28.891Z,0
2017-07-09T23:20:44.418Z,0
2017-07-09T23:30:59.091Z,0
2017-07-09T23:41:14.801Z,0
2017-07-09T23:51:30.003Z,0
